Encinal, TX (78019)

8:05 AM CDT on October 30, 2014 (GMT -0500)
Lincoln Ranch | Change Station
CLOSE
Current Station
Personal Weather Station
Location: Encinal, TX
Elevation: 459 ft
Nearby Weather Stations

Elev 459 ft 27.85 °N, 99.15 °W | Updated 12 seconds ago

Clear
Clear
62.2 °F
Feels Like 62.2 °F
N
1.2
Wind Variable Wind from NNE
Gusts 2.0 mph

Today
High -- | Low -- °F
--% Chance of Precip.
Yesterday
High -- | Low -- °F
Precip. -- in
7:47 AM 6:54 PM
Waxing Crescent, 43% visible
Pressure 30.08 in
Visibility 4.0 miles
Clouds Clear
Dew Point 61 °F
Humidity 98%
Rainfall 0.00 in
Snow Depth Not available.
UV 0 out of 12
Pollen 5.60 out of 12
Air Quality Not available.
Flu Activity Not available.
METAR KCOT 301253Z AUTO 08006KT 4SM BR CLR 19/18 A3010 RMK AO2 SLP186 T01940178

More Conditions Fewer Conditions

Pressure 30.08 in
Visibility 4.0 miles
Clouds Clear
Dew Point 61 °F
Humidity 98%
Rainfall 0.00 in
Snow Depth Not available.
UV 0 out of 12
Pollen 5.60 out of 12
Air Quality Not available.
Flu Activity Not available.
METAR KCOT 301253Z AUTO 08006KT 4SM BR CLR 19/18 A3010 RMK AO2 SLP186 T01940178

More Conditions Fewer Conditions

10-Day Weather Forecast

Almanac

Astronomy

Oct. 30, 2014 Rise Set
Actual Time
Civil Twilight
Nautical Twilight
Astronomical Twilight
Moon
Length of Visible Light
Length of Day
Tomorrow will be .
, % of the Moon is Illuminated

Today's Extremes

State Highs State Lows

Community

WunderPhotos

Upload Photos

1,766,354 photos uploaded!

WunderBlogs® & News

Nearby

Air Quality

  Air Quality AQ Index Pollutant
Not available.

Snow Depth

Station Depth Elevation

Earthquake Activity

City Distance Mag. Time & Date
Minimum magnitude displayed is 2.5.

Coastal Water Temperatures

Place Temperature

Nearby Weather Stations